sensor_id;sensor_type;location;lat;lon;timestamp;P1;durP1;ratioP1;P2;durP2;ratioP2
48853;SDS011;34673;52.808;17.856;2022-11-20T00:01:11;23.42;;;12.15;;
48853;SDS011;34673;52.808;17.856;2022-11-20T00:03:48;24.40;;;12.48;;
48853;SDS011;34673;52.808;17.856;2022-11-20T00:06:20;31.75;;;14.50;;
48853;SDS011;34673;52.808;17.856;2022-11-20T00:08:48;26.65;;;12.85;;
48853;SDS011;34673;52.808;17.856;2022-11-20T00:11:17;30.88;;;13.52;;
48853;SDS011;34673;52.808;17.856;2022-11-20T00:13:46;27.17;;;13.35;;
48853;SDS011;34673;52.808;17.856;2022-11-20T00:16:16;32.47;;;15.97;;
48853;SDS011;34673;52.808;17.856;2022-11-20T00:18:45;29.50;;;14.90;;
48853;SDS011;34673;52.808;17.856;2022-11-20T00:21:14;29.08;;;14.13;;
48853;SDS011;34673;52.808;17.856;2022-11-20T00:23:45;32.67;;;15.75;;
48853;SDS011;34673;52.808;17.856;2022-11-20T00:26:13;31.48;;;14.48;;
48853;SDS011;34673;52.808;17.856;2022-11-20T00:28:42;28.33;;;13.68;;
48853;SDS011;34673;52.808;17.856;2022-11-20T00:31:14;28.17;;;14.18;;
48853;SDS011;34673;52.808;17.856;2022-11-20T00:33:42;29.77;;;14.68;;
48853;SDS011;34673;52.808;17.856;2022-11-20T00:36:11;30.20;;;14.95;;
48853;SDS011;34673;52.808;17.856;2022-11-20T00:38:40;32.10;;;15.23;;
48853;SDS011;34673;52.808;17.856;2022-11-20T00:41:08;29.58;;;15.45;;
48853;SDS011;34673;52.808;17.856;2022-11-20T00:43:37;30.15;;;14.98;;
48853;SDS011;34673;52.808;17.856;2022-11-20T00:46:06;28.85;;;13.40;;
48853;SDS011;34673;52.808;17.856;2022-11-20T00:48:35;30.65;;;14.30;;
48853;SDS011;34673;52.808;17.856;2022-11-20T00:51:02;27.25;;;13.55;;
48853;SDS011;34673;52.808;17.856;2022-11-20T00:53:29;29.70;;;14.60;;
48853;SDS011;34673;52.808;17.856;2022-11-20T00:55:58;26.65;;;13.82;;
48853;SDS011;34673;52.808;17.856;2022-11-20T00:58:31;23.92;;;13.30;;
48853;SDS011;34673;52.808;17.856;2022-11-20T01:01:04;28.60;;;13.63;;
48853;SDS011;34673;52.808;17.856;2022-11-20T01:03:37;28.65;;;13.35;;
48853;SDS011;34673;52.808;17.856;2022-11-20T01:06:07;28.83;;;13.85;;
48853;SDS011;34673;52.808;17.856;2022-11-20T01:08:38;28.95;;;13.50;;
48853;SDS011;34673;52.808;17.856;2022-11-20T01:11:06;29.95;;;13.68;;
48853;SDS011;34673;52.808;17.856;2022-11-20T01:13:39;27.27;;;13.13;;
48853;SDS011;34673;52.808;17.856;2022-11-20T01:18:40;32.95;;;15.18;;
48853;SDS011;34673;52.808;17.856;2022-11-20T01:21:10;31.80;;;15.93;;
48853;SDS011;34673;52.808;17.856;2022-11-20T01:23:39;34.30;;;16.05;;
48853;SDS011;34673;52.808;17.856;2022-11-20T01:26:11;35.38;;;16.63;;
48853;SDS011;34673;52.808;17.856;2022-11-20T01:28:40;32.65;;;15.55;;
48853;SDS011;34673;52.808;17.856;2022-11-20T01:31:15;32.08;;;15.85;;
48853;SDS011;34673;52.808;17.856;2022-11-20T01:33:46;33.00;;;15.63;;
48853;SDS011;34673;52.808;17.856;2022-11-20T01:36:16;34.88;;;16.88;;
48853;SDS011;34673;52.808;17.856;2022-11-20T01:38:44;32.25;;;14.88;;
48853;SDS011;34673;52.808;17.856;2022-11-20T01:41:11;33.35;;;16.30;;
48853;SDS011;34673;52.808;17.856;2022-11-20T01:44:00;33.13;;;15.60;;
48853;SDS011;34673;52.808;17.856;2022-11-20T01:46:27;31.98;;;15.77;;
48853;SDS011;34673;52.808;17.856;2022-11-20T01:48:59;34.85;;;16.17;;
48853;SDS011;34673;52.808;17.856;2022-11-20T01:51:38;32.33;;;15.18;;
48853;SDS011;34673;52.808;17.856;2022-11-20T01:54:18;32.97;;;15.07;;
48853;SDS011;34673;52.808;17.856;2022-11-20T01:56:51;31.30;;;15.18;;
48853;SDS011;34673;52.808;17.856;2022-11-20T01:59:22;29.98;;;14.88;;
48853;SDS011;34673;52.808;17.856;2022-11-20T02:01:52;32.25;;;15.15;;
48853;SDS011;34673;52.808;17.856;2022-11-20T02:04:20;33.13;;;15.60;;
48853;SDS011;34673;52.808;17.856;2022-11-20T02:06:49;32.55;;;15.02;;
48853;SDS011;34673;52.808;17.856;2022-11-20T02:09:26;35.00;;;16.30;;
48853;SDS011;34673;52.808;17.856;2022-11-20T02:11:54;32.10;;;14.43;;
48853;SDS011;34673;52.808;17.856;2022-11-20T02:14:22;27.48;;;14.88;;
48853;SDS011;34673;52.808;17.856;2022-11-20T02:16:51;32.45;;;15.77;;
48853;SDS011;34673;52.808;17.856;2022-11-20T02:19:26;32.03;;;14.80;;
48853;SDS011;34673;52.808;17.856;2022-11-20T02:24:54;30.20;;;13.98;;
48853;SDS011;34673;52.808;17.856;2022-11-20T02:27:22;30.10;;;13.20;;
48853;SDS011;34673;52.808;17.856;2022-11-20T02:29:50;34.92;;;15.50;;
48853;SDS011;34673;52.808;17.856;2022-11-20T02:32:28;26.83;;;13.55;;
48853;SDS011;34673;52.808;17.856;2022-11-20T02:36:01;30.15;;;14.38;;
48853;SDS011;34673;52.808;17.856;2022-11-20T02:37:58;28.23;;;13.52;;
48853;SDS011;34673;52.808;17.856;2022-11-20T02:40:28;30.00;;;14.90;;
48853;SDS011;34673;52.808;17.856;2022-11-20T02:42:55;25.10;;;12.45;;
48853;SDS011;34673;52.808;17.856;2022-11-20T02:45:23;27.23;;;13.38;;
48853;SDS011;34673;52.808;17.856;2022-11-20T02:47:51;27.23;;;12.57;;
48853;SDS011;34673;52.808;17.856;2022-11-20T02:50:19;28.13;;;13.35;;
48853;SDS011;34673;52.808;17.856;2022-11-20T02:52:47;28.77;;;14.20;;
48853;SDS011;34673;52.808;17.856;2022-11-20T02:55:14;26.35;;;12.32;;
48853;SDS011;34673;52.808;17.856;2022-11-20T02:57:41;24.05;;;11.73;;
48853;SDS011;34673;52.808;17.856;2022-11-20T03:00:09;21.08;;;11.68;;
48853;SDS011;34673;52.808;17.856;2022-11-20T03:02:36;22.40;;;11.25;;
48853;SDS011;34673;52.808;17.856;2022-11-20T03:05:03;26.10;;;12.07;;
48853;SDS011;34673;52.808;17.856;2022-11-20T03:07:31;21.85;;;11.00;;
48853;SDS011;34673;52.808;17.856;2022-11-20T03:09:58;21.67;;;11.05;;
48853;SDS011;34673;52.808;17.856;2022-11-20T03:12:25;23.40;;;11.73;;
48853;SDS011;34673;52.808;17.856;2022-11-20T03:14:52;29.63;;;12.65;;
48853;SDS011;34673;52.808;17.856;2022-11-20T03:17:20;25.35;;;12.48;;
48853;SDS011;34673;52.808;17.856;2022-11-20T03:19:47;25.67;;;12.93;;
48853;SDS011;34673;52.808;17.856;2022-11-20T03:22:14;24.05;;;12.07;;
48853;SDS011;34673;52.808;17.856;2022-11-20T03:24:41;24.88;;;12.48;;
48853;SDS011;34673;52.808;17.856;2022-11-20T03:27:08;25.75;;;11.70;;
48853;SDS011;34673;52.808;17.856;2022-11-20T03:29:35;26.88;;;12.52;;
48853;SDS011;34673;52.808;17.856;2022-11-20T03:32:02;27.92;;;13.13;;
48853;SDS011;34673;52.808;17.856;2022-11-20T03:34:30;29.48;;;13.60;;
48853;SDS011;34673;52.808;17.856;2022-11-20T03:36:57;24.65;;;11.93;;
48853;SDS011;34673;52.808;17.856;2022-11-20T03:39:24;26.90;;;13.38;;
48853;SDS011;34673;52.808;17.856;2022-11-20T03:41:51;26.90;;;13.15;;
48853;SDS011;34673;52.808;17.856;2022-11-20T03:44:20;26.50;;;12.98;;
48853;SDS011;34673;52.808;17.856;2022-11-20T03:46:48;28.63;;;14.35;;
48853;SDS011;34673;52.808;17.856;2022-11-20T03:49:15;25.35;;;11.77;;
48853;SDS011;34673;52.808;17.856;2022-11-20T03:51:42;26.13;;;13.30;;
48853;SDS011;34673;52.808;17.856;2022-11-20T03:54:10;27.08;;;12.82;;
48853;SDS011;34673;52.808;17.856;2022-11-20T03:56:37;25.55;;;12.80;;
48853;SDS011;34673;52.808;17.856;2022-11-20T03:59:05;26.25;;;12.68;;
48853;SDS011;34673;52.808;17.856;2022-11-20T04:01:34;30.27;;;14.05;;
48853;SDS011;34673;52.808;17.856;2022-11-20T04:04:04;27.75;;;13.18;;
48853;SDS011;34673;52.808;17.856;2022-11-20T04:06:35;29.98;;;13.85;;
48853;SDS011;34673;52.808;17.856;2022-11-20T04:09:04;28.20;;;14.00;;
48853;SDS011;34673;52.808;17.856;2022-11-20T04:11:33;31.67;;;15.02;;
48853;SDS011;34673;52.808;17.856;2022-11-20T04:14:02;30.10;;;14.55;;
48853;SDS011;34673;52.808;17.856;2022-11-20T04:16:33;35.47;;;15.38;;
48853;SDS011;34673;52.808;17.856;2022-11-20T04:19:02;30.17;;;14.55;;
48853;SDS011;34673;52.808;17.856;2022-11-20T04:21:31;29.23;;;14.60;;
48853;SDS011;34673;52.808;17.856;2022-11-20T04:23:59;30.85;;;14.70;;
48853;SDS011;34673;52.808;17.856;2022-11-20T04:26:27;29.48;;;13.93;;
48853;SDS011;34673;52.808;17.856;2022-11-20T04:28:56;27.77;;;14.35;;
48853;SDS011;34673;52.808;17.856;2022-11-20T04:31:28;28.58;;;14.57;;
48853;SDS011;34673;52.808;17.856;2022-11-20T04:34:00;31.23;;;14.98;;
48853;SDS011;34673;52.808;17.856;2022-11-20T04:36:32;29.90;;;14.52;;
48853;SDS011;34673;52.808;17.856;2022-11-20T04:39:01;30.42;;;15.20;;
48853;SDS011;34673;52.808;17.856;2022-11-20T04:41:32;32.65;;;15.73;;
48853;SDS011;34673;52.808;17.856;2022-11-20T04:44:02;31.75;;;15.85;;
48853;SDS011;34673;52.808;17.856;2022-11-20T04:46:35;36.80;;;16.35;;
48853;SDS011;34673;52.808;17.856;2022-11-20T04:49:07;32.65;;;16.75;;
48853;SDS011;34673;52.808;17.856;2022-11-20T04:51:35;33.22;;;15.85;;
48853;SDS011;34673;52.808;17.856;2022-11-20T04:54:02;31.17;;;16.00;;
48853;SDS011;34673;52.808;17.856;2022-11-20T04:56:29;34.05;;;16.50;;
48853;SDS011;34673;52.808;17.856;2022-11-20T04:58:59;37.22;;;17.15;;
48853;SDS011;34673;52.808;17.856;2022-11-20T05:01:27;33.92;;;17.45;;
48853;SDS011;34673;52.808;17.856;2022-11-20T05:03:54;34.75;;;16.80;;
48853;SDS011;34673;52.808;17.856;2022-11-20T05:06:22;33.63;;;17.02;;
48853;SDS011;34673;52.808;17.856;2022-11-20T05:08:49;37.95;;;17.77;;
48853;SDS011;34673;52.808;17.856;2022-11-20T05:11:18;36.85;;;17.73;;
48853;SDS011;34673;52.808;17.856;2022-11-20T05:13:46;31.75;;;16.25;;
48853;SDS011;34673;52.808;17.856;2022-11-20T05:16:15;41.83;;;19.58;;
48853;SDS011;34673;52.808;17.856;2022-11-20T05:21:12;36.58;;;17.30;;
48853;SDS011;34673;52.808;17.856;2022-11-20T05:23:39;36.42;;;17.17;;
48853;SDS011;34673;52.808;17.856;2022-11-20T05:26:08;42.45;;;18.13;;
48853;SDS011;34673;52.808;17.856;2022-11-20T05:28:42;35.05;;;16.98;;
48853;SDS011;34673;52.808;17.856;2022-11-20T05:31:11;37.58;;;18.55;;
48853;SDS011;34673;52.808;17.856;2022-11-20T05:33:40;36.55;;;18.50;;
48853;SDS011;34673;52.808;17.856;2022-11-20T05:36:08;44.60;;;20.55;;
48853;SDS011;34673;52.808;17.856;2022-11-20T05:38:36;45.42;;;20.52;;
48853;SDS011;34673;52.808;17.856;2022-11-20T05:41:37;37.53;;;18.85;;
48853;SDS011;34673;52.808;17.856;2022-11-20T05:43:57;44.40;;;20.05;;
48853;SDS011;34673;52.808;17.856;2022-11-20T05:46:25;43.13;;;19.67;;
48853;SDS011;34673;52.808;17.856;2022-11-20T05:48:55;42.13;;;18.80;;
48853;SDS011;34673;52.808;17.856;2022-11-20T05:51:24;39.92;;;18.90;;
48853;SDS011;34673;52.808;17.856;2022-11-20T05:53:51;43.78;;;20.35;;
48853;SDS011;34673;52.808;17.856;2022-11-20T05:56:19;45.20;;;21.75;;
48853;SDS011;34673;52.808;17.856;2022-11-20T05:58:48;44.33;;;20.23;;
48853;SDS011;34673;52.808;17.856;2022-11-20T06:01:17;46.78;;;20.73;;
48853;SDS011;34673;52.808;17.856;2022-11-20T06:03:46;43.78;;;20.75;;
48853;SDS011;34673;52.808;17.856;2022-11-20T06:06:15;44.60;;;20.25;;
48853;SDS011;34673;52.808;17.856;2022-11-20T06:08:43;49.40;;;22.52;;
48853;SDS011;34673;52.808;17.856;2022-11-20T06:11:12;45.17;;;20.67;;
48853;SDS011;34673;52.808;17.856;2022-11-20T06:13:41;44.85;;;20.00;;
48853;SDS011;34673;52.808;17.856;2022-11-20T06:16:08;49.03;;;21.75;;
48853;SDS011;34673;52.808;17.856;2022-11-20T06:18:37;45.47;;;20.30;;
48853;SDS011;34673;52.808;17.856;2022-11-20T06:21:05;50.25;;;20.88;;
48853;SDS011;34673;52.808;17.856;2022-11-20T06:23:34;47.55;;;21.52;;
48853;SDS011;34673;52.808;17.856;2022-11-20T06:26:06;44.30;;;20.33;;
48853;SDS011;34673;52.808;17.856;2022-11-20T06:28:37;46.20;;;20.90;;
48853;SDS011;34673;52.808;17.856;2022-11-20T06:31:05;43.97;;;19.63;;
48853;SDS011;34673;52.808;17.856;2022-11-20T06:33:33;47.50;;;20.55;;
48853;SDS011;34673;52.808;17.856;2022-11-20T06:36:00;39.75;;;18.98;;
48853;SDS011;34673;52.808;17.856;2022-11-20T06:38:35;47.75;;;20.42;;
48853;SDS011;34673;52.808;17.856;2022-11-20T06:41:03;48.63;;;21.00;;
48853;SDS011;34673;52.808;17.856;2022-11-20T06:43:32;49.00;;;20.60;;
48853;SDS011;34673;52.808;17.856;2022-11-20T06:45:59;41.22;;;19.02;;
48853;SDS011;34673;52.808;17.856;2022-11-20T06:48:27;44.95;;;19.25;;
48853;SDS011;34673;52.808;17.856;2022-11-20T06:50:55;45.42;;;20.42;;
48853;SDS011;34673;52.808;17.856;2022-11-20T06:53:23;44.47;;;19.15;;
48853;SDS011;34673;52.808;17.856;2022-11-20T06:55:51;44.08;;;19.38;;
48853;SDS011;34673;52.808;17.856;2022-11-20T06:58:19;43.40;;;19.08;;
48853;SDS011;34673;52.808;17.856;2022-11-20T07:00:46;41.33;;;18.67;;
48853;SDS011;34673;52.808;17.856;2022-11-20T07:03:13;42.45;;;19.02;;
48853;SDS011;34673;52.808;17.856;2022-11-20T07:05:40;40.30;;;19.60;;
48853;SDS011;34673;52.808;17.856;2022-11-20T07:08:08;40.72;;;18.02;;
48853;SDS011;34673;52.808;17.856;2022-11-20T07:10:36;39.28;;;18.20;;
48853;SDS011;34673;52.808;17.856;2022-11-20T07:13:03;40.13;;;18.52;;
48853;SDS011;34673;52.808;17.856;2022-11-20T07:15:30;41.22;;;18.73;;
48853;SDS011;34673;52.808;17.856;2022-11-20T07:18:00;40.60;;;18.35;;
48853;SDS011;34673;52.808;17.856;2022-11-20T07:20:28;40.15;;;18.55;;
48853;SDS011;34673;52.808;17.856;2022-11-20T07:22:55;42.50;;;20.25;;
48853;SDS011;34673;52.808;17.856;2022-11-20T07:25:24;40.80;;;19.35;;
48853;SDS011;34673;52.808;17.856;2022-11-20T07:27:52;39.63;;;18.83;;
48853;SDS011;34673;52.808;17.856;2022-11-20T07:30:19;42.20;;;19.55;;
48853;SDS011;34673;52.808;17.856;2022-11-20T07:32:52;40.95;;;18.75;;
48853;SDS011;34673;52.808;17.856;2022-11-20T07:35:20;41.60;;;19.20;;
48853;SDS011;34673;52.808;17.856;2022-11-20T07:37:47;40.70;;;19.75;;
48853;SDS011;34673;52.808;17.856;2022-11-20T07:40:15;43.15;;;21.15;;
48853;SDS011;34673;52.808;17.856;2022-11-20T07:42:53;43.72;;;21.08;;
48853;SDS011;34673;52.808;17.856;2022-11-20T07:45:22;43.15;;;20.25;;
48853;SDS011;34673;52.808;17.856;2022-11-20T07:47:51;42.97;;;20.27;;
48853;SDS011;34673;52.808;17.856;2022-11-20T07:50:18;38.78;;;19.17;;
48853;SDS011;34673;52.808;17.856;2022-11-20T07:52:46;43.25;;;20.30;;
48853;SDS011;34673;52.808;17.856;2022-11-20T07:55:14;42.17;;;20.52;;
48853;SDS011;34673;52.808;17.856;2022-11-20T07:57:41;40.22;;;20.48;;
48853;SDS011;34673;52.808;17.856;2022-11-20T08:00:09;44.83;;;21.55;;
48853;SDS011;34673;52.808;17.856;2022-11-20T08:02:38;44.95;;;21.77;;
48853;SDS011;34673;52.808;17.856;2022-11-20T08:05:07;45.78;;;20.63;;
48853;SDS011;34673;52.808;17.856;2022-11-20T08:07:42;42.25;;;20.63;;
48853;SDS011;34673;52.808;17.856;2022-11-20T08:10:12;46.58;;;21.95;;
48853;SDS011;34673;52.808;17.856;2022-11-20T08:12:45;44.13;;;21.58;;
48853;SDS011;34673;52.808;17.856;2022-11-20T08:15:35;46.47;;;21.88;;
48853;SDS011;34673;52.808;17.856;2022-11-20T08:18:08;41.58;;;19.80;;
48853;SDS011;34673;52.808;17.856;2022-11-20T08:20:57;44.95;;;21.50;;
48853;SDS011;34673;52.808;17.856;2022-11-20T08:23:28;39.85;;;20.30;;
48853;SDS011;34673;52.808;17.856;2022-11-20T08:25:55;40.25;;;20.52;;
48853;SDS011;34673;52.808;17.856;2022-11-20T08:28:22;43.05;;;20.73;;
48853;SDS011;34673;52.808;17.856;2022-11-20T08:30:50;44.88;;;21.48;;
48853;SDS011;34673;52.808;17.856;2022-11-20T08:33:17;45.90;;;21.48;;
48853;SDS011;34673;52.808;17.856;2022-11-20T08:35:45;43.13;;;21.58;;
48853;SDS011;34673;52.808;17.856;2022-11-20T08:38:12;45.88;;;21.80;;
48853;SDS011;34673;52.808;17.856;2022-11-20T08:40:39;46.08;;;22.40;;
48853;SDS011;34673;52.808;17.856;2022-11-20T08:43:07;47.05;;;22.65;;
48853;SDS011;34673;52.808;17.856;2022-11-20T08:45:34;44.88;;;22.38;;
48853;SDS011;34673;52.808;17.856;2022-11-20T08:48:01;45.42;;;22.17;;
48853;SDS011;34673;52.808;17.856;2022-11-20T08:50:30;50.63;;;24.45;;
48853;SDS011;34673;52.808;17.856;2022-11-20T08:53:03;50.35;;;23.60;;
48853;SDS011;34673;52.808;17.856;2022-11-20T08:55:31;50.42;;;24.38;;
48853;SDS011;34673;52.808;17.856;2022-11-20T08:58:02;51.58;;;25.17;;
48853;SDS011;34673;52.808;17.856;2022-11-20T09:00:30;48.15;;;23.10;;
48853;SDS011;34673;52.808;17.856;2022-11-20T09:02:59;44.70;;;22.20;;
48853;SDS011;34673;52.808;17.856;2022-11-20T09:05:28;48.33;;;23.63;;
48853;SDS011;34673;52.808;17.856;2022-11-20T09:07:55;46.35;;;22.42;;
48853;SDS011;34673;52.808;17.856;2022-11-20T09:10:24;53.40;;;23.65;;
48853;SDS011;34673;52.808;17.856;2022-11-20T09:12:52;43.50;;;20.95;;
48853;SDS011;34673;52.808;17.856;2022-11-20T09:15:20;42.40;;;20.75;;
48853;SDS011;34673;52.808;17.856;2022-11-20T09:17:54;43.88;;;22.80;;
48853;SDS011;34673;52.808;17.856;2022-11-20T09:20:22;46.38;;;21.70;;
48853;SDS011;34673;52.808;17.856;2022-11-20T09:22:50;43.75;;;22.17;;
48853;SDS011;34673;52.808;17.856;2022-11-20T09:25:18;44.38;;;21.63;;
48853;SDS011;34673;52.808;17.856;2022-11-20T09:27:45;47.28;;;22.85;;
48853;SDS011;34673;52.808;17.856;2022-11-20T09:30:13;49.03;;;24.48;;
48853;SDS011;34673;52.808;17.856;2022-11-20T09:32:42;43.05;;;22.38;;
48853;SDS011;34673;52.808;17.856;2022-11-20T09:35:09;45.20;;;21.35;;
48853;SDS011;34673;52.808;17.856;2022-11-20T09:37:37;40.90;;;21.58;;
48853;SDS011;34673;52.808;17.856;2022-11-20T09:40:05;45.83;;;22.08;;
48853;SDS011;34673;52.808;17.856;2022-11-20T09:51:46;42.42;;;21.48;;
48853;SDS011;34673;52.808;17.856;2022-11-20T09:54:35;40.17;;;19.55;;
48853;SDS011;34673;52.808;17.856;2022-11-20T09:57:13;43.83;;;20.42;;
48853;SDS011;34673;52.808;17.856;2022-11-20T09:59:46;39.40;;;19.95;;
48853;SDS011;34673;52.808;17.856;2022-11-20T10:10:30;36.50;;;18.30;;
48853;SDS011;34673;52.808;17.856;2022-11-20T10:27:23;40.10;;;19.13;;
48853;SDS011;34673;52.808;17.856;2022-11-20T10:30:12;38.10;;;18.50;;
48853;SDS011;34673;52.808;17.856;2022-11-20T10:32:46;40.08;;;19.65;;
48853;SDS011;34673;52.808;17.856;2022-11-20T10:38:40;38.72;;;18.58;;
48853;SDS011;34673;52.808;17.856;2022-11-20T10:41:26;41.97;;;18.90;;
48853;SDS011;34673;52.808;17.856;2022-11-20T10:47:08;38.13;;;18.58;;
48853;SDS011;34673;52.808;17.856;2022-11-20T10:49:45;39.33;;;19.25;;
48853;SDS011;34673;52.808;17.856;2022-11-20T10:55:11;39.08;;;17.02;;
48853;SDS011;34673;52.808;17.856;2022-11-20T10:57:58;38.45;;;18.75;;
48853;SDS011;34673;52.808;17.856;2022-11-20T11:00:34;37.78;;;18.23;;
48853;SDS011;34673;52.808;17.856;2022-11-20T11:03:02;38.88;;;18.50;;
48853;SDS011;34673;52.808;17.856;2022-11-20T11:05:37;36.67;;;17.98;;
48853;SDS011;34673;52.808;17.856;2022-11-20T11:08:15;34.37;;;17.37;;
48853;SDS011;34673;52.808;17.856;2022-11-20T11:10:53;39.30;;;17.25;;
48853;SDS011;34673;52.808;17.856;2022-11-20T11:13:25;36.92;;;18.67;;
48853;SDS011;34673;52.808;17.856;2022-11-20T11:21:00;32.22;;;17.17;;
48853;SDS011;34673;52.808;17.856;2022-11-20T11:26:06;35.30;;;17.52;;
48853;SDS011;34673;52.808;17.856;2022-11-20T11:28:57;38.88;;;18.33;;
48853;SDS011;34673;52.808;17.856;2022-11-20T11:31:27;37.35;;;18.50;;
48853;SDS011;34673;52.808;17.856;2022-11-20T11:36:34;36.47;;;17.52;;
48853;SDS011;34673;52.808;17.856;2022-11-20T11:39:03;36.72;;;16.63;;
48853;SDS011;34673;52.808;17.856;2022-11-20T11:41:32;37.15;;;18.17;;
48853;SDS011;34673;52.808;17.856;2022-11-20T11:47:26;37.70;;;16.67;;
48853;SDS011;34673;52.808;17.856;2022-11-20T11:50:02;35.30;;;18.15;;
48853;SDS011;34673;52.808;17.856;2022-11-20T11:53:05;37.45;;;17.98;;
48853;SDS011;34673;52.808;17.856;2022-11-20T11:56:19;35.50;;;17.35;;
48853;SDS011;34673;52.808;17.856;2022-11-20T12:01:24;36.10;;;17.58;;
48853;SDS011;34673;52.808;17.856;2022-11-20T12:06:32;33.63;;;16.65;;
48853;SDS011;34673;52.808;17.856;2022-11-20T12:09:07;32.78;;;16.17;;
48853;SDS011;34673;52.808;17.856;2022-11-20T12:11:47;35.20;;;16.75;;
48853;SDS011;34673;52.808;17.856;2022-11-20T12:14:21;32.58;;;15.88;;
48853;SDS011;34673;52.808;17.856;2022-11-20T12:17:03;34.50;;;15.85;;
48853;SDS011;34673;52.808;17.856;2022-11-20T12:19:31;34.10;;;16.27;;
48853;SDS011;34673;52.808;17.856;2022-11-20T12:22:14;32.85;;;16.67;;
48853;SDS011;34673;52.808;17.856;2022-11-20T12:25:07;33.47;;;15.50;;
48853;SDS011;34673;52.808;17.856;2022-11-20T12:27:41;31.15;;;15.90;;
48853;SDS011;34673;52.808;17.856;2022-11-20T12:30:22;32.05;;;15.40;;
48853;SDS011;34673;52.808;17.856;2022-11-20T12:35:53;30.35;;;15.73;;
48853;SDS011;34673;52.808;17.856;2022-11-20T12:41:06;35.17;;;16.67;;
48853;SDS011;34673;52.808;17.856;2022-11-20T13:07:28;35.80;;;15.93;;
48853;SDS011;34673;52.808;17.856;2022-11-20T13:09:57;35.05;;;16.83;;
48853;SDS011;34673;52.808;17.856;2022-11-20T13:12:43;35.65;;;17.23;;
48853;SDS011;34673;52.808;17.856;2022-11-20T13:15:23;35.50;;;16.98;;
48853;SDS011;34673;52.808;17.856;2022-11-20T13:18:01;35.78;;;16.45;;
48853;SDS011;34673;52.808;17.856;2022-11-20T13:20:30;36.05;;;17.75;;
48853;SDS011;34673;52.808;17.856;2022-11-20T13:25:46;36.97;;;17.70;;
48853;SDS011;34673;52.808;17.856;2022-11-20T13:30:48;37.17;;;17.25;;
48853;SDS011;34673;52.808;17.856;2022-11-20T13:35:55;39.55;;;17.75;;
48853;SDS011;34673;52.808;17.856;2022-11-20T13:38:25;36.60;;;17.90;;
48853;SDS011;34673;52.808;17.856;2022-11-20T13:40:59;37.55;;;17.70;;
48853;SDS011;34673;52.808;17.856;2022-11-20T13:43:47;40.20;;;18.13;;
48853;SDS011;34673;52.808;17.856;2022-11-20T13:46:15;35.97;;;16.83;;
48853;SDS011;34673;52.808;17.856;2022-11-20T13:48:43;38.25;;;18.35;;
48853;SDS011;34673;52.808;17.856;2022-11-20T13:51:30;35.03;;;17.13;;
48853;SDS011;34673;52.808;17.856;2022-11-20T13:54:22;36.65;;;18.35;;
48853;SDS011;34673;52.808;17.856;2022-11-20T13:57:25;38.97;;;18.40;;
48853;SDS011;34673;52.808;17.856;2022-11-20T14:00:18;36.88;;;17.20;;
48853;SDS011;34673;52.808;17.856;2022-11-20T14:02:52;37.95;;;17.70;;
48853;SDS011;34673;52.808;17.856;2022-11-20T14:05:24;35.90;;;17.60;;
48853;SDS011;34673;52.808;17.856;2022-11-20T14:07:51;37.80;;;17.65;;
48853;SDS011;34673;52.808;17.856;2022-11-20T14:12:57;39.38;;;18.60;;
48853;SDS011;34673;52.808;17.856;2022-11-20T14:17:56;37.15;;;17.90;;
48853;SDS011;34673;52.808;17.856;2022-11-20T14:20:26;40.13;;;18.73;;
48853;SDS011;34673;52.808;17.856;2022-11-20T14:22:55;39.05;;;18.92;;
48853;SDS011;34673;52.808;17.856;2022-11-20T14:25:23;39.05;;;20.27;;
48853;SDS011;34673;52.808;17.856;2022-11-20T14:27:57;39.28;;;19.27;;
48853;SDS011;34673;52.808;17.856;2022-11-20T14:30:28;39.25;;;18.33;;
48853;SDS011;34673;52.808;17.856;2022-11-20T14:33:04;39.97;;;17.67;;
48853;SDS011;34673;52.808;17.856;2022-11-20T14:35:35;37.45;;;18.23;;
48853;SDS011;34673;52.808;17.856;2022-11-20T14:38:08;39.35;;;17.75;;
48853;SDS011;34673;52.808;17.856;2022-11-20T14:40:39;38.50;;;18.77;;
48853;SDS011;34673;52.808;17.856;2022-11-20T14:43:23;38.53;;;18.15;;
48853;SDS011;34673;52.808;17.856;2022-11-20T14:45:54;39.47;;;18.33;;
48853;SDS011;34673;52.808;17.856;2022-11-20T14:48:28;39.95;;;18.13;;
48853;SDS011;34673;52.808;17.856;2022-11-20T14:51:03;37.25;;;17.73;;
48853;SDS011;34673;52.808;17.856;2022-11-20T14:53:31;40.50;;;18.63;;
48853;SDS011;34673;52.808;17.856;2022-11-20T14:55:58;38.97;;;18.85;;
48853;SDS011;34673;52.808;17.856;2022-11-20T14:58:30;37.27;;;17.80;;
48853;SDS011;34673;52.808;17.856;2022-11-20T15:01:06;38.10;;;18.27;;
48853;SDS011;34673;52.808;17.856;2022-11-20T15:03:35;38.13;;;17.73;;
48853;SDS011;34673;52.808;17.856;2022-11-20T15:06:09;38.83;;;18.48;;
48853;SDS011;34673;52.808;17.856;2022-11-20T15:08:38;40.10;;;18.45;;
48853;SDS011;34673;52.808;17.856;2022-11-20T15:11:16;37.42;;;17.23;;
48853;SDS011;34673;52.808;17.856;2022-11-20T15:13:46;37.47;;;17.15;;
48853;SDS011;34673;52.808;17.856;2022-11-20T15:16:16;39.03;;;18.13;;
48853;SDS011;34673;52.808;17.856;2022-11-20T15:18:46;34.35;;;16.65;;
48853;SDS011;34673;52.808;17.856;2022-11-20T15:21:14;33.20;;;16.27;;
48853;SDS011;34673;52.808;17.856;2022-11-20T15:23:43;35.88;;;17.38;;
48853;SDS011;34673;52.808;17.856;2022-11-20T15:26:11;32.85;;;16.13;;
48853;SDS011;34673;52.808;17.856;2022-11-20T15:28:46;36.08;;;16.48;;
48853;SDS011;34673;52.808;17.856;2022-11-20T15:31:20;35.17;;;15.82;;
48853;SDS011;34673;52.808;17.856;2022-11-20T15:33:49;40.50;;;17.98;;
48853;SDS011;34673;52.808;17.856;2022-11-20T15:36:16;37.70;;;16.88;;
48853;SDS011;34673;52.808;17.856;2022-11-20T15:38:44;39.15;;;17.63;;
48853;SDS011;34673;52.808;17.856;2022-11-20T15:41:11;38.95;;;17.52;;
48853;SDS011;34673;52.808;17.856;2022-11-20T15:43:38;34.25;;;16.17;;
48853;SDS011;34673;52.808;17.856;2022-11-20T15:46:10;35.28;;;16.70;;
48853;SDS011;34673;52.808;17.856;2022-11-20T15:48:41;37.53;;;17.52;;
48853;SDS011;34673;52.808;17.856;2022-11-20T15:53:54;38.13;;;17.13;;
48853;SDS011;34673;52.808;17.856;2022-11-20T15:56:22;39.55;;;18.77;;
48853;SDS011;34673;52.808;17.856;2022-11-20T15:58:49;40.22;;;17.95;;
48853;SDS011;34673;52.808;17.856;2022-11-20T16:01:18;38.63;;;18.50;;
48853;SDS011;34673;52.808;17.856;2022-11-20T16:06:15;39.92;;;18.48;;
48853;SDS011;34673;52.808;17.856;2022-11-20T16:08:45;39.83;;;17.58;;
48853;SDS011;34673;52.808;17.856;2022-11-20T16:11:13;41.00;;;18.95;;
48853;SDS011;34673;52.808;17.856;2022-11-20T16:13:42;39.47;;;18.52;;
48853;SDS011;34673;52.808;17.856;2022-11-20T16:16:35;36.15;;;16.80;;
48853;SDS011;34673;52.808;17.856;2022-11-20T16:19:05;38.10;;;17.65;;
48853;SDS011;34673;52.808;17.856;2022-11-20T16:21:32;36.25;;;17.63;;
48853;SDS011;34673;52.808;17.856;2022-11-20T16:24:02;41.50;;;19.05;;
48853;SDS011;34673;52.808;17.856;2022-11-20T16:26:31;41.05;;;18.13;;